createdAt,value
2023-05-10T00:01:45.606Z,76.92
2023-05-10T00:04:12.709Z,77.16
2023-05-10T00:06:39.771Z,76.84
2023-05-10T00:09:06.965Z,76.66
2023-05-10T00:11:34.033Z,76.28
2023-05-10T00:14:01.045Z,77.10
2023-05-10T00:16:28.275Z,77.42
2023-05-10T00:18:55.399Z,76.70
2023-05-10T00:21:22.387Z,75.83
2023-05-10T00:23:49.327Z,76.11
2023-05-10T00:26:17.746Z,76.92
2023-05-10T00:28:44.749Z,76.67
2023-05-10T00:31:11.809Z,75.45
2023-05-10T00:33:38.755Z,74.13
2023-05-10T00:36:08.575Z,73.64
2023-05-10T00:38:35.604Z,73.46
2023-05-10T00:41:02.640Z,73.78
2023-05-10T00:43:29.662Z,72.69
2023-05-10T00:45:56.919Z,70.24
2023-05-10T00:48:24.191Z,68.75
2023-05-10T00:50:51.450Z,68.36
2023-05-10T00:53:19.029Z,67.68
2023-05-10T00:55:46.135Z,67.58
2023-05-10T00:58:13.439Z,67.43
2023-05-10T01:00:43.166Z,66.56
2023-05-10T01:03:12.517Z,66.35
2023-05-10T01:05:39.860Z,65.40
2023-05-10T01:08:07.511Z,64.59
2023-05-10T01:10:34.646Z,64.17
2023-05-10T01:13:01.861Z,63.90
2023-05-10T01:15:29.242Z,63.17
2023-05-10T01:17:57.534Z,62.62
2023-05-10T01:20:25.840Z,62.07
2023-05-10T01:23:20.191Z,60.64
2023-05-10T01:26:14.580Z,60.78
2023-05-10T01:28:50.629Z,61.04
2023-05-10T01:31:55.121Z,59.18
2023-05-10T01:34:28.646Z,59.69
2023-05-10T01:37:10.574Z,57.48
2023-05-10T01:40:04.138Z,58.47
2023-05-10T01:42:40.281Z,58.69
2023-05-10T01:45:17.457Z,58.56
2023-05-10T01:48:06.891Z,57.53
2023-05-10T01:50:36.677Z,58.15
2023-05-10T01:53:07.024Z,58.31
2023-05-10T01:55:41.207Z,57.91
2023-05-10T01:58:11.476Z,57.61
2023-05-10T02:00:43.944Z,57.35
2023-05-10T02:03:12.791Z,57.38
2023-05-10T02:05:42.478Z,56.61
2023-05-10T02:08:10.889Z,56.29
2023-05-10T02:10:40.123Z,55.65
2023-05-10T02:13:09.498Z,55.69
2023-05-10T02:15:39.826Z,55.69
2023-05-10T02:18:08.035Z,55.60
2023-05-10T02:20:36.325Z,54.99
2023-05-10T02:23:04.811Z,54.18
2023-05-10T02:25:33.841Z,53.62
2023-05-10T02:28:04.125Z,53.78
2023-05-10T02:30:33.633Z,54.44
2023-05-10T02:33:01.382Z,54.52
2023-05-10T02:35:29.302Z,54.76
2023-05-10T02:37:59.108Z,54.81
2023-05-10T02:40:28.933Z,54.73
2023-05-10T02:42:58.155Z,54.82
2023-05-10T02:45:31.450Z,54.73
2023-05-10T02:47:59.575Z,55.21
2023-05-10T02:50:29.397Z,55.27
2023-05-10T02:53:05.127Z,54.52
2023-05-10T02:55:37.445Z,53.96
2023-05-10T02:58:04.921Z,53.26
2023-05-10T03:00:32.714Z,52.86
2023-05-10T03:03:00.039Z,53.36
2023-05-10T03:05:27.092Z,53.75
2023-05-10T03:07:55.490Z,54.19
2023-05-10T03:10:29.719Z,55.73
2023-05-10T03:13:15.485Z,56.46
2023-05-10T03:16:08.941Z,56.00
2023-05-10T03:19:13.209Z,56.86
2023-05-10T03:21:43.294Z,56.86
2023-05-10T03:24:13.494Z,57.13
2023-05-10T03:26:43.262Z,56.90
2023-05-10T03:29:11.452Z,56.99
2023-05-10T03:31:39.785Z,56.91
2023-05-10T03:34:07.418Z,57.04
2023-05-10T03:36:34.603Z,56.90
2023-05-10T03:39:01.677Z,56.90
2023-05-10T03:41:29.719Z,57.42
2023-05-10T03:43:56.726Z,57.46
2023-05-10T03:46:23.729Z,58.11
2023-05-10T03:48:50.726Z,57.94
2023-05-10T03:51:17.717Z,57.62
2023-05-10T03:53:44.679Z,57.95
2023-05-10T03:56:11.670Z,58.58
2023-05-10T03:58:38.878Z,58.85
2023-05-10T04:01:05.990Z,58.99
2023-05-10T04:03:33.149Z,59.29
2023-05-10T04:06:03.878Z,59.97
2023-05-10T04:08:31.042Z,59.29
2023-05-10T04:11:10.868Z,59.63
2023-05-10T04:13:38.373Z,60.42
2023-05-10T04:16:06.018Z,60.25
2023-05-10T04:18:33.146Z,61.43
2023-05-10T04:21:00.255Z,62.96
2023-05-10T04:23:28.870Z,62.36
2023-05-10T04:26:02.370Z,62.85
2023-05-10T04:28:29.320Z,62.36
2023-05-10T04:31:06.499Z,62.59
2023-05-10T04:33:34.323Z,61.42
2023-05-10T04:36:01.876Z,61.40
2023-05-10T04:38:29.283Z,61.18
2023-05-10T04:41:05.150Z,60.74
2023-05-10T04:43:32.077Z,61.33
2023-05-10T04:45:59.187Z,62.14
2023-05-10T04:48:26.214Z,62.85
2023-05-10T04:50:53.148Z,63.42
2023-05-10T04:53:20.145Z,62.77
2023-05-10T04:55:47.867Z,63.76
2023-05-10T04:58:15.131Z,63.94
2023-05-10T05:00:42.792Z,64.11
2023-05-10T05:03:09.885Z,64.12
2023-05-10T05:05:36.940Z,63.46
2023-05-10T05:08:04.219Z,63.21
2023-05-10T05:10:31.519Z,64.00
2023-05-10T05:12:58.520Z,63.96
2023-05-10T05:15:25.589Z,63.98
2023-05-10T05:17:52.922Z,64.03
2023-05-10T05:20:20.171Z,63.96
2023-05-10T05:22:47.085Z,64.72
2023-05-10T05:25:14.165Z,65.09
2023-05-10T05:27:41.179Z,64.81
2023-05-10T05:30:08.944Z,65.57
2023-05-10T05:32:36.074Z,66.07
2023-05-10T05:35:03.055Z,66.30
2023-05-10T05:37:30.017Z,66.13
2023-05-10T05:39:57.033Z,66.81
2023-05-10T05:42:24.030Z,67.47
2023-05-10T05:44:51.066Z,67.99
2023-05-10T05:47:18.615Z,68.37
2023-05-10T05:49:47.011Z,69.30
2023-05-10T05:52:13.997Z,70.76
2023-05-10T05:54:41.056Z,71.62
2023-05-10T05:57:08.622Z,70.48
2023-05-10T05:59:35.648Z,70.83
2023-05-10T06:02:02.670Z,70.89
2023-05-10T06:04:29.718Z,71.24
2023-05-10T06:06:56.753Z,71.65
2023-05-10T06:09:25.642Z,73.57
2023-05-10T06:11:52.590Z,73.87
2023-05-10T06:14:22.061Z,73.76
2023-05-10T06:16:49.029Z,73.80
2023-05-10T06:19:16.136Z,73.21
2023-05-10T06:21:43.100Z,72.77
2023-05-10T06:24:10.064Z,73.03
2023-05-10T06:26:37.334Z,73.44
2023-05-10T06:29:04.363Z,73.57
2023-05-10T06:31:31.422Z,74.60
2023-05-10T06:33:58.938Z,74.40
2023-05-10T06:36:27.493Z,75.64
2023-05-10T06:38:54.520Z,75.49
2023-05-10T06:41:24.639Z,74.86
2023-05-10T06:43:51.913Z,75.17
2023-05-10T06:46:18.928Z,75.25
2023-05-10T06:48:45.902Z,75.34
2023-05-10T06:51:12.962Z,75.01
2023-05-10T06:53:39.929Z,74.97
2023-05-10T06:56:06.917Z,74.71
2023-05-10T06:58:33.917Z,74.97
2023-05-10T07:01:05.475Z,74.91
2023-05-10T07:03:33.309Z,75.37
2023-05-10T07:06:04.869Z,75.30
2023-05-10T07:08:33.110Z,75.86
2023-05-10T07:11:05.098Z,75.45
2023-05-10T07:13:33.147Z,75.20
2023-05-10T07:16:01.665Z,75.71
2023-05-10T07:18:28.891Z,75.85
2023-05-10T07:20:56.268Z,75.95
2023-05-10T07:23:23.236Z,76.19
2023-05-10T07:25:52.586Z,76.33
2023-05-10T07:28:19.806Z,76.81
2023-05-10T07:30:47.613Z,75.81
2023-05-10T07:33:15.824Z,75.79
2023-05-10T07:35:43.726Z,75.65
2023-05-10T07:38:12.237Z,75.81
2023-05-10T07:40:40.446Z,76.20
2023-05-10T07:43:07.556Z,77.16
2023-05-10T07:45:35.089Z,77.10
2023-05-10T07:48:02.201Z,77.63
2023-05-10T07:50:29.387Z,77.35
2023-05-10T07:52:56.364Z,77.26
2023-05-10T07:55:23.435Z,77.35
2023-05-10T07:57:50.456Z,77.38
2023-05-10T08:00:21.428Z,76.71
2023-05-10T08:02:48.992Z,76.66
2023-05-10T08:05:16.620Z,75.95
2023-05-10T08:07:43.761Z,74.89
2023-05-10T08:10:12.304Z,74.79
2023-05-10T08:12:39.609Z,74.97
2023-05-10T08:15:07.794Z,74.41
2023-05-10T08:17:34.892Z,73.80
2023-05-10T08:20:02.467Z,73.37
2023-05-10T08:22:29.587Z,73.11
2023-05-10T08:24:56.543Z,73.28
2023-05-10T08:27:23.562Z,73.42
2023-05-10T08:29:50.810Z,73.47
2023-05-10T08:32:18.638Z,73.24
2023-05-10T08:34:45.674Z,73.38
2023-05-10T08:37:14.619Z,73.28
2023-05-10T08:39:41.946Z,73.86
2023-05-10T08:42:10.423Z,73.83
2023-05-10T08:44:37.953Z,74.01
2023-05-10T08:47:08.690Z,74.07
2023-05-10T08:49:36.323Z,73.82
2023-05-10T08:52:05.549Z,72.64
2023-05-10T08:54:33.648Z,71.56
2023-05-10T08:57:01.098Z,71.03
2023-05-10T08:59:28.666Z,70.47
2023-05-10T09:02:02.252Z,70.16
2023-05-10T09:04:31.016Z,70.10
2023-05-10T09:06:58.503Z,69.76
2023-05-10T09:09:26.902Z,69.28
2023-05-10T09:11:55.010Z,69.23
2023-05-10T09:14:23.245Z,69.66
2023-05-10T09:16:50.630Z,69.03
2023-05-10T09:19:17.617Z,69.20
2023-05-10T09:21:44.636Z,69.08
2023-05-10T09:24:11.590Z,69.05
2023-05-10T09:26:49.114Z,68.99
2023-05-10T09:29:17.728Z,69.00
2023-05-10T09:31:48.005Z,69.75
2023-05-10T09:34:24.041Z,69.98
2023-05-10T09:37:04.008Z,69.77
2023-05-10T09:39:33.176Z,69.94
2023-05-10T09:42:05.612Z,69.88
2023-05-10T09:44:35.907Z,69.66
2023-05-10T09:47:03.912Z,69.66
2023-05-10T09:49:31.321Z,69.05
2023-05-10T09:52:03.865Z,69.02
2023-05-10T09:54:31.510Z,68.83
2023-05-10T09:56:58.710Z,68.73
2023-05-10T09:59:30.267Z,68.85
2023-05-10T10:01:59.369Z,69.20
2023-05-10T10:04:26.915Z,68.74
2023-05-10T10:07:04.876Z,68.01
2023-05-10T10:09:33.741Z,68.05
2023-05-10T10:12:01.956Z,68.74
2023-05-10T10:14:30.294Z,69.46
2023-05-10T10:17:07.418Z,69.72
2023-05-10T10:19:37.203Z,69.67
2023-05-10T10:22:04.639Z,69.08
2023-05-10T10:24:31.686Z,68.94
2023-05-10T10:27:09.023Z,68.43
2023-05-10T10:29:59.448Z,67.48
2023-05-10T10:32:56.537Z,67.43
2023-05-10T10:35:23.870Z,68.04
2023-05-10T10:37:52.209Z,67.83
2023-05-10T10:40:31.900Z,67.15
2023-05-10T10:43:27.063Z,66.55
2023-05-10T10:46:18.430Z,65.47
2023-05-10T10:48:52.473Z,65.48
2023-05-10T10:51:19.519Z,65.26
2023-05-10T10:53:49.244Z,65.39
2023-05-10T10:56:16.690Z,65.95
2023-05-10T10:58:52.458Z,65.67
2023-05-10T11:01:20.410Z,65.02
2023-05-10T11:03:59.723Z,64.64
2023-05-10T11:06:32.845Z,64.45
2023-05-10T11:09:00.752Z,65.01
2023-05-10T11:11:27.992Z,65.73
2023-05-10T11:14:04.786Z,65.80
2023-05-10T11:16:45.226Z,65.97
2023-05-10T11:19:13.797Z,65.70
2023-05-10T11:22:07.013Z,64.39
2023-05-10T11:24:34.597Z,64.49
2023-05-10T11:27:02.124Z,64.92
2023-05-10T11:29:29.263Z,64.95
2023-05-10T11:31:59.593Z,65.85
2023-05-10T11:34:28.974Z,65.99
2023-05-10T11:36:57.362Z,66.47
2023-05-10T11:39:29.264Z,66.12
2023-05-10T11:41:56.901Z,65.38
2023-05-10T11:44:24.411Z,65.25
2023-05-10T11:46:51.633Z,65.79
2023-05-10T11:49:19.069Z,66.82
2023-05-10T11:51:46.115Z,68.24
2023-05-10T11:54:13.187Z,68.87
2023-05-10T11:56:41.393Z,69.55
2023-05-10T11:59:09.374Z,69.95
2023-05-10T12:01:37.143Z,70.39
2023-05-10T12:04:04.640Z,70.53
2023-05-10T12:06:34.304Z,70.03
2023-05-10T12:09:08.255Z,70.30
2023-05-10T12:11:40.543Z,70.97
2023-05-10T12:14:09.973Z,70.94
2023-05-10T12:16:37.092Z,70.52
2023-05-10T12:19:04.274Z,71.16
2023-05-10T12:21:34.519Z,71.49
2023-05-10T12:24:04.926Z,72.40
2023-05-10T12:26:33.866Z,72.79
2023-05-10T12:29:17.499Z,71.95
2023-05-10T12:31:52.339Z,71.37
2023-05-10T12:34:32.535Z,69.95
2023-05-10T12:37:00.006Z,69.99
2023-05-10T12:39:27.468Z,69.05
2023-05-10T12:41:54.522Z,69.08
2023-05-10T12:44:21.662Z,70.11
2023-05-10T12:46:48.853Z,70.89
2023-05-10T12:49:15.963Z,70.87
2023-05-10T12:51:42.955Z,70.66
2023-05-10T12:54:10.044Z,70.42
2023-05-10T12:56:38.160Z,70.02
2023-05-10T12:59:05.485Z,69.56
2023-05-10T13:01:32.502Z,69.85
2023-05-10T13:04:01.226Z,70.17
2023-05-10T13:06:28.191Z,70.52
2023-05-10T13:08:55.172Z,70.67
2023-05-10T13:11:22.754Z,69.80
2023-05-10T13:13:49.784Z,69.86
2023-05-10T13:16:16.876Z,69.97
2023-05-10T13:18:44.002Z,69.82
2023-05-10T13:21:11.139Z,69.17
2023-05-10T13:23:38.134Z,67.49
2023-05-10T13:26:05.085Z,67.86
2023-05-10T13:28:32.089Z,68.55
2023-05-10T13:31:01.079Z,68.13
2023-05-10T13:33:28.124Z,68.49
2023-05-10T13:35:55.856Z,68.15
2023-05-10T13:38:23.059Z,68.32
2023-05-10T13:40:53.730Z,68.18
2023-05-10T13:43:21.161Z,68.07
2023-05-10T13:45:48.230Z,68.47
2023-05-10T13:48:15.215Z,68.33
2023-05-10T13:50:42.252Z,67.57
2023-05-10T13:53:09.190Z,67.41
2023-05-10T13:55:36.989Z,67.54
2023-05-10T13:58:03.936Z,67.94
2023-05-10T14:00:31.112Z,68.01
2023-05-10T14:02:58.172Z,68.38
2023-05-10T14:05:26.440Z,67.57
2023-05-10T14:07:53.765Z,67.77
2023-05-10T14:10:21.176Z,67.97
2023-05-10T14:12:48.272Z,68.05
2023-05-10T14:15:15.589Z,68.05
2023-05-10T14:17:42.837Z,67.86
2023-05-10T14:20:10.290Z,66.60
2023-05-10T14:22:37.283Z,65.73
2023-05-10T14:25:04.563Z,65.43
2023-05-10T14:27:31.638Z,64.74
2023-05-10T14:29:58.719Z,64.59
2023-05-10T14:32:25.975Z,63.86
2023-05-10T14:34:52.988Z,63.05
2023-05-10T14:37:19.967Z,63.73
2023-05-10T14:39:47.013Z,63.58
2023-05-10T14:42:14.009Z,63.41
2023-05-10T14:44:41.004Z,62.65
2023-05-10T14:47:08.953Z,61.98
2023-05-10T14:49:38.297Z,61.78
2023-05-10T14:52:05.308Z,61.88
2023-05-10T14:54:34.538Z,61.65
2023-05-10T14:57:01.823Z,62.40
2023-05-10T14:59:28.926Z,62.71
2023-05-10T15:01:56.753Z,63.05
2023-05-10T15:04:24.739Z,63.19
2023-05-10T15:06:53.322Z,63.80
2023-05-10T15:09:20.294Z,64.25
2023-05-10T15:11:47.236Z,64.37
2023-05-10T15:14:14.188Z,64.20
2023-05-10T15:16:41.293Z,64.72
2023-05-10T15:19:08.400Z,65.31
2023-05-10T15:21:39.994Z,65.43
2023-05-10T15:24:07.189Z,65.86
2023-05-10T15:26:34.382Z,66.17
2023-05-10T15:29:01.385Z,66.18
2023-05-10T15:31:28.552Z,66.12
2023-05-10T15:34:01.920Z,66.02
2023-05-10T15:36:29.176Z,65.93
2023-05-10T15:38:56.972Z,65.41
2023-05-10T15:41:24.766Z,65.04
2023-05-10T15:43:51.959Z,64.39
2023-05-10T15:46:18.915Z,64.09
2023-05-10T15:48:45.931Z,63.38
2023-05-10T15:51:12.953Z,64.00
2023-05-10T15:53:46.649Z,64.04
2023-05-10T15:56:20.047Z,65.11
2023-05-10T15:58:47.172Z,65.64
2023-05-10T16:01:14.379Z,66.13
2023-05-10T16:03:41.501Z,66.06
2023-05-10T16:06:08.580Z,66.27
2023-05-10T16:08:35.644Z,65.91
2023-05-10T16:11:03.229Z,65.72
2023-05-10T16:13:30.359Z,65.18
2023-05-10T16:16:00.527Z,65.08
2023-05-10T16:18:27.676Z,64.08
2023-05-10T16:20:54.847Z,63.90
2023-05-10T16:23:21.841Z,62.96
2023-05-10T16:25:48.820Z,61.68
2023-05-10T16:28:15.807Z,61.85
2023-05-10T16:30:42.754Z,61.58
2023-05-10T16:33:09.737Z,62.14
2023-05-10T16:35:36.725Z,61.58
2023-05-10T16:38:04.187Z,61.59
2023-05-10T16:40:31.567Z,60.84
2023-05-10T16:42:58.762Z,61.67
2023-05-10T16:45:26.898Z,62.37
2023-05-10T16:47:54.107Z,62.56
2023-05-10T16:50:21.396Z,62.78
2023-05-10T16:52:48.383Z,63.57
2023-05-10T16:55:15.616Z,64.16
2023-05-10T16:57:42.799Z,64.02
2023-05-10T17:00:12.038Z,63.96
2023-05-10T17:02:39.585Z,64.58
2023-05-10T17:05:06.871Z,63.74
2023-05-10T17:07:33.951Z,63.35
2023-05-10T17:10:00.960Z,63.75
2023-05-10T17:12:28.181Z,64.08
2023-05-10T17:14:55.187Z,64.69
2023-05-10T17:17:22.313Z,64.31
2023-05-10T17:19:49.317Z,63.71
2023-05-10T17:22:16.287Z,63.46
2023-05-10T17:24:43.524Z,63.38
2023-05-10T17:27:10.495Z,63.58
2023-05-10T17:29:37.712Z,63.96
2023-05-10T17:32:04.945Z,63.78
2023-05-10T17:34:31.956Z,63.86
2023-05-10T17:36:58.953Z,63.89
2023-05-10T17:39:26.024Z,63.78
2023-05-10T17:41:53.053Z,63.63
2023-05-10T17:44:20.198Z,64.08
2023-05-10T17:46:47.832Z,64.01
2023-05-10T17:49:15.427Z,64.73
2023-05-10T17:51:44.234Z,65.46
2023-05-10T17:54:11.184Z,65.54
2023-05-10T17:56:38.174Z,65.97
2023-05-10T17:59:05.592Z,66.09
2023-05-10T18:01:32.974Z,66.27
2023-05-10T18:04:00.005Z,66.42
2023-05-10T18:06:26.997Z,66.82
2023-05-10T18:08:54.019Z,66.74
2023-05-10T18:11:21.983Z,66.72
2023-05-10T18:13:48.978Z,66.55
2023-05-10T18:16:16.079Z,66.68
2023-05-10T18:18:43.107Z,66.61
2023-05-10T18:21:10.062Z,66.41
2023-05-10T18:23:37.330Z,66.99
2023-05-10T18:26:04.426Z,66.75
2023-05-10T18:28:31.445Z,66.74
2023-05-10T18:30:58.494Z,66.62
2023-05-10T18:33:25.679Z,66.90
2023-05-10T18:35:52.716Z,66.88
2023-05-10T18:38:20.007Z,66.99
2023-05-10T18:40:46.997Z,66.91
2023-05-10T18:43:14.093Z,67.26
2023-05-10T18:45:41.232Z,67.56
2023-05-10T18:48:08.330Z,67.89
2023-05-10T18:50:35.342Z,67.85
2023-05-10T18:53:03.294Z,68.03
2023-05-10T18:55:30.483Z,68.27
2023-05-10T18:57:57.505Z,68.35
2023-05-10T19:00:24.724Z,67.80
2023-05-10T19:02:51.947Z,67.80
2023-05-10T19:05:19.468Z,67.81
2023-05-10T19:07:47.115Z,68.01
2023-05-10T19:10:14.196Z,68.46
2023-05-10T19:12:43.943Z,68.59
2023-05-10T19:15:11.888Z,68.85
2023-05-10T19:17:41.049Z,69.16
2023-05-10T19:20:09.495Z,69.15
2023-05-10T19:22:54.344Z,69.05
2023-05-10T19:25:29.656Z,69.32
2023-05-10T19:27:59.691Z,69.46
2023-05-10T19:30:27.204Z,69.41
2023-05-10T19:32:54.492Z,69.59
2023-05-10T19:35:21.552Z,69.74
2023-05-10T19:37:49.867Z,70.72
2023-05-10T19:40:17.583Z,71.18
2023-05-10T19:42:44.606Z,71.03
2023-05-10T19:45:12.393Z,71.48
2023-05-10T19:47:39.484Z,71.12
2023-05-10T19:50:07.584Z,70.81
2023-05-10T19:52:34.667Z,70.93
2023-05-10T19:55:01.630Z,71.05
2023-05-10T19:57:29.122Z,71.74
2023-05-10T19:59:56.281Z,72.24
2023-05-10T20:02:23.409Z,72.49
2023-05-10T20:04:50.570Z,72.60
2023-05-10T20:07:17.555Z,71.93
2023-05-10T20:09:44.632Z,71.62
2023-05-10T20:12:11.624Z,71.96
2023-05-10T20:14:38.658Z,71.49
2023-05-10T20:17:05.948Z,72.00
2023-05-10T20:19:33.000Z,72.93
2023-05-10T20:22:00.040Z,73.18
2023-05-10T20:24:27.026Z,72.60
2023-05-10T20:26:53.927Z,72.63
2023-05-10T20:29:20.977Z,72.30
2023-05-10T20:31:47.942Z,72.31
2023-05-10T20:34:14.952Z,72.56
2023-05-10T20:36:42.181Z,73.21
2023-05-10T20:39:09.828Z,72.82
2023-05-10T20:41:36.797Z,72.81
2023-05-10T20:44:05.683Z,73.19
2023-05-10T20:46:33.845Z,73.88
2023-05-10T20:49:00.962Z,74.34
2023-05-10T20:51:30.168Z,73.70
2023-05-10T20:53:57.992Z,73.92
2023-05-10T20:56:25.073Z,73.81
2023-05-10T20:58:52.066Z,73.83
2023-05-10T21:01:19.149Z,73.86
2023-05-10T21:03:46.239Z,73.88
2023-05-10T21:06:13.206Z,73.97
2023-05-10T21:08:40.163Z,73.88
2023-05-10T21:11:07.173Z,74.19
2023-05-10T21:13:34.229Z,74.62
2023-05-10T21:16:01.270Z,74.77
2023-05-10T21:18:28.693Z,74.80
2023-05-10T21:20:55.840Z,74.61
2023-05-10T21:23:22.992Z,74.12
2023-05-10T21:25:49.968Z,74.26
2023-05-10T21:28:16.985Z,74.79
2023-05-10T21:30:43.974Z,75.60
2023-05-10T21:33:11.494Z,76.00
2023-05-10T21:35:42.813Z,75.86
2023-05-10T21:38:10.061Z,75.14
2023-05-10T21:40:37.078Z,74.68
2023-05-10T21:43:04.070Z,74.49
2023-05-10T21:45:33.078Z,75.32
2023-05-10T21:48:00.703Z,76.60
2023-05-10T21:50:27.746Z,76.11
2023-05-10T21:52:55.712Z,75.84
2023-05-10T21:55:22.950Z,75.11
2023-05-10T21:57:51.073Z,74.78
2023-05-10T22:00:19.435Z,74.85
2023-05-10T22:02:47.111Z,74.91
2023-05-10T22:05:14.237Z,74.68
2023-05-10T22:07:41.266Z,74.68
2023-05-10T22:10:09.772Z,74.75
2023-05-10T22:12:36.847Z,74.80
2023-05-10T22:17:34.418Z,75.21
2023-05-10T22:20:01.392Z,75.35
2023-05-10T22:22:28.642Z,75.09
2023-05-10T22:24:55.646Z,75.84
2023-05-10T22:27:22.666Z,76.54
2023-05-10T22:29:49.636Z,76.49
2023-05-10T22:32:16.718Z,76.15
2023-05-10T22:34:43.713Z,76.17
2023-05-10T22:37:13.857Z,75.65
2023-05-10T22:39:40.877Z,75.61
2023-05-10T22:42:08.230Z,75.35
2023-05-10T22:44:35.237Z,75.42
2023-05-10T22:47:02.269Z,75.56
2023-05-10T22:49:29.370Z,76.89
2023-05-10T22:51:56.316Z,77.14
2023-05-10T22:54:23.268Z,76.63
2023-05-10T22:56:50.951Z,76.18
2023-05-10T22:59:17.998Z,77.32
2023-05-10T23:01:45.047Z,78.22
2023-05-10T23:04:12.623Z,77.16
2023-05-10T23:06:39.791Z,76.41
2023-05-10T23:09:06.783Z,77.17
2023-05-10T23:11:33.793Z,76.77
2023-05-10T23:14:00.827Z,76.24
2023-05-10T23:16:27.828Z,76.12
2023-05-10T23:18:55.103Z,76.16
2023-05-10T23:21:22.177Z,77.06
2023-05-10T23:23:49.545Z,77.23
2023-05-10T23:26:16.512Z,76.83
2023-05-10T23:28:43.449Z,77.09
2023-05-10T23:31:10.433Z,77.09
2023-05-10T23:33:37.432Z,76.68
2023-05-10T23:36:04.608Z,76.42
2023-05-10T23:38:31.612Z,76.26
2023-05-10T23:40:58.604Z,76.00
2023-05-10T23:43:25.693Z,76.04
2023-05-10T23:45:57.158Z,76.98
2023-05-10T23:48:24.726Z,77.25
2023-05-10T23:50:51.920Z,76.78
2023-05-10T23:53:19.220Z,76.56
2023-05-10T23:55:46.285Z,76.21
2023-05-10T23:58:13.285Z,75.91
